Terminal Aerodrome Forecast
Issued by NWS Sterling, VA

Current Version | Previous Version | Graphics & Text | Print | Product List | Glossary On
Versions: 1 2 3 4 5 6 7 8 9 10 11 12 13 14 15
843
FTUS41 KLWX 200522
TAFMRB
TAF
KMRB 200522Z 2006/2106 21004KT P6SM FEW250
     FM200800 28005KT P6SM FEW250
     FM202000 34007KT P6SM FEW250
     FM210000 05004KT P6SM FEW250
     FM210300 33004KT P6SM SKC=

USA.gov is the U.S. government's official web portal to all federal, state and local government web resources and services.